Normaali sää.    Ei varoituksia

Säätiedot lähimmiltä METAR asemilta

   
EFUT - Utti
Päivitetty: 23-04-2018 13:50
Selkeää  
Selkeää  
   Tuuli: Eteläkaakko 11.1 km/h
Tuuli: Eteläkaakko 11.1 km/h
Lämpötila: 7°C
Tuulen hyytävyys: 5°C
Kastepiste: -4°C
Kosteus: 46%
Ilmanpaine: 1015 mb
Näkyvyys: enemmän kuin 10 km
Pilvitiedot: Selkeää
EFUT 231050Z 15006KT 070V230 CAVOK 07/M04 Q1015
EFMI - Mikkeli
Päivitetty: 23-04-2018 13:50
Selkeää  
Selkeää  
   Tuuli: vaihtelee 5.6 km/h
Tuuli: vaihtelee 5.6 km/h
Lämpötila: 7°C
Tuulen hyytävyys: 6°C
Kastepiste: -3°C
Kosteus: 49%
Ilmanpaine: 1015 mb
Näkyvyys: enemmän kuin 10 km
Pilvitiedot: Selkeää
EFMI 231050Z AUTO VRB03KT CAVOK 07/M03 Q1015
EFLP - Lappeenranta
Päivitetty: 23-04-2018 13:50
Selkeää  
Selkeää  
   Tuuli: vaihtelee 7.4 km/h
Tuuli: vaihtelee 7.4 km/h
Lämpötila: 7°C
Tuulen hyytävyys: 6°C
Kastepiste: -7°C
Kosteus: 37%
Ilmanpaine: 1015 mb
Näkyvyys: enemmän kuin 10 km
Pilvitiedot: Selkeää
EFLP 231050Z AUTO VRB04KT CAVOK 07/M07 Q1015
EFHK - Helsinki/Vantaa
Päivitetty: 23-04-2018 13:50
Enimmäkseen pilvistä  
Enimmäkseen pilvistä  
   Tuuli: Eteläkaakko 18.5 km/h
Tuuli: Eteläkaakko 18.5 km/h
Lämpötila: 6°C
Tuulen hyytävyys: 3°C
Kastepiste: -2°C
Kosteus: 57%
Ilmanpaine: 1015 mb
Pilvisyys: Enimmäkseen pilvistä
Näkyvyys: enemmän kuin 10 km
Pilvitiedot: Vähäistä pilvisyyttä 1066.8 m,
Enimmäkseen pilvistä 6096 m
EFHK 231050Z 16010KT 130V190 9999 FEW035 BKN200 06/M02 Q1015 NOSIG
EFHF - Helsinki/Malmi
Päivitetty: 06-03-2017 17:50
EI Ajankohtaista
Selkeää  
Selkeää  
   Tuuli: Koillinen 11.1 km/h
Tuuli: Koillinen 11.1 km/h
Lämpötila: -2°C
Tuulen hyytävyys: -6°C
Kastepiste: -11°C
Kosteus: 51%
Ilmanpaine: 1021 mb
Näkyvyys: enemmän kuin 10 km
Pilvitiedot: Selkeää
EFHF 061550Z 04006KT 330V100 CAVOK M02/M11 Q1021
ELLX - Luxemburg
Päivitetty: 23-04-2018 13:50
Puolipilvistä  
Puolipilvistä  
   Tuuli: Länsi 25.9 km/h
Tuuli: Länsi 25.9 km/h
Lämpötila: 19°C
Kastepiste: 10°C
Kosteus: 56%
Ilmanpaine: 1017 mb
Pilvisyys: Puolipilvistä
Näkyvyys: enemmän kuin 10 km
Pilvitiedot: Puolipilvistä 975.4 m
ELLX 231050Z 26014KT 240V300 9999 SCT032 19/10 Q1017 NOSIG

Alkuperäinen skripti  Saratoga-weather.org Sovitettu myös templatelle  Weerstation Leuven